createdAt,value
2019-02-27T00:00:16.822Z,4.24
2019-02-27T00:01:17.537Z,4.33
2019-02-27T00:02:16.826Z,4.39
2019-02-27T00:03:16.788Z,4.29
2019-02-27T00:04:16.777Z,4.29
2019-02-27T00:05:16.767Z,4.28
2019-02-27T00:06:16.757Z,4.34
2019-02-27T00:07:20.809Z,4.28
2019-02-27T00:08:16.744Z,4.32
2019-02-27T00:09:16.729Z,4.18
2019-02-27T00:10:16.714Z,4.15
2019-02-27T00:11:16.703Z,4.08
2019-02-27T00:12:16.996Z,4.06
2019-02-27T00:13:16.684Z,4.07
2019-02-27T00:14:16.688Z,4.01
2019-02-27T00:15:16.666Z,3.90
2019-02-27T00:16:16.651Z,4.06
2019-02-27T00:17:18.018Z,3.90
2019-02-27T00:18:16.631Z,3.94
2019-02-27T00:19:16.619Z,4.00
2019-02-27T00:20:16.617Z,3.92
2019-02-27T00:21:16.601Z,4.01
2019-02-27T00:22:17.647Z,4.03
2019-02-27T00:23:16.577Z,4.03
2019-02-27T00:24:16.565Z,3.97
2019-02-27T00:25:16.553Z,3.83
2019-02-27T00:26:16.558Z,3.79
2019-02-27T00:27:16.534Z,3.70
2019-02-27T00:28:16.522Z,3.78
2019-02-27T00:29:16.513Z,3.75
2019-02-27T00:30:16.507Z,3.71
2019-02-27T00:31:16.490Z,3.75
2019-02-27T00:32:18.490Z,3.75
2019-02-27T00:33:16.469Z,3.78
2019-02-27T00:34:16.461Z,3.72
2019-02-27T00:35:16.456Z,3.76
2019-02-27T00:36:16.437Z,3.70
2019-02-27T00:37:18.815Z,3.64
2019-02-27T00:38:16.425Z,3.72
2019-02-27T00:39:16.407Z,3.62
2019-02-27T00:40:16.396Z,3.70
2019-02-27T00:41:16.383Z,3.75
2019-02-27T00:42:19.579Z,3.54
2019-02-27T00:43:16.360Z,3.61
2019-02-27T00:44:16.361Z,3.64
2019-02-27T00:45:16.338Z,3.67
2019-02-27T00:46:16.329Z,3.65
2019-02-27T00:47:17.060Z,3.64
2019-02-27T00:48:16.310Z,3.68
2019-02-27T00:49:16.296Z,3.65
2019-02-27T00:50:16.294Z,3.67
2019-02-27T00:51:16.274Z,3.72
2019-02-27T00:52:18.229Z,3.57
2019-02-27T00:53:16.251Z,3.75
2019-02-27T00:54:16.242Z,3.76
2019-02-27T00:55:16.231Z,3.75
2019-02-27T00:56:16.229Z,3.72
2019-02-27T00:57:20.620Z,3.72
2019-02-27T00:58:17.197Z,3.72
2019-02-27T00:59:16.191Z,3.68
2019-02-27T01:00:16.176Z,3.72
2019-02-27T01:01:16.176Z,3.71
2019-02-27T01:02:19.970Z,3.71
2019-02-27T01:03:16.145Z,3.64
2019-02-27T01:04:16.138Z,3.47
2019-02-27T01:05:16.142Z,3.61
2019-02-27T01:06:16.112Z,3.60
2019-02-27T01:07:20.250Z,3.58
2019-02-27T01:08:16.103Z,3.49
2019-02-27T01:09:16.082Z,3.58
2019-02-27T01:10:16.070Z,3.58
2019-02-27T01:11:18.421Z,3.49
2019-02-27T01:12:16.053Z,3.61
2019-02-27T01:13:16.054Z,3.58
2019-02-27T01:14:16.044Z,3.58
2019-02-27T01:15:16.019Z,3.47
2019-02-27T01:16:17.266Z,3.40
2019-02-27T01:36:37.277Z,3.24
2019-02-27T01:36:45.449Z,3.16
2019-02-27T01:37:45.434Z,3.23
2019-02-27T01:38:45.425Z,3.28
2019-02-27T01:39:45.435Z,3.21
2019-02-27T01:40:45.401Z,3.23
2019-02-27T01:41:45.407Z,3.31
2019-02-27T01:42:45.389Z,3.24
2019-02-27T01:43:45.371Z,3.21
2019-02-27T01:44:46.682Z,3.12
2019-02-27T01:45:45.349Z,3.13
2019-02-27T01:46:45.341Z,3.10
2019-02-27T01:58:17.765Z,3.02
2019-02-27T01:59:11.260Z,2.98
2019-02-27T02:00:11.235Z,2.95
2019-02-27T02:01:11.225Z,2.92
2019-02-27T02:02:11.213Z,3.03
2019-02-27T02:03:33.308Z,3.06
2019-02-27T02:04:11.194Z,2.95
2019-02-27T02:05:11.195Z,3.05
2019-02-27T02:06:11.187Z,3.06
2019-02-27T02:07:11.164Z,3.06
2019-02-27T02:08:14.020Z,2.89
2019-02-27T02:09:11.169Z,2.94
2019-02-27T02:10:11.131Z,3.00
2019-02-27T02:11:11.174Z,2.95
2019-02-27T02:12:11.110Z,2.95
2019-02-27T02:13:14.825Z,2.92
2019-02-27T02:14:11.088Z,3.00
2019-02-27T02:15:11.094Z,2.94
2019-02-27T02:16:11.068Z,2.89
2019-02-27T02:17:11.090Z,2.82
2019-02-27T02:18:11.913Z,2.81
2019-02-27T02:19:11.049Z,2.76
2019-02-27T02:20:11.027Z,2.79
2019-02-27T02:21:11.019Z,2.87
2019-02-27T02:22:11.006Z,2.87
2019-02-27T02:23:13.972Z,2.81
2019-02-27T02:24:10.989Z,2.77
2019-02-27T02:25:10.990Z,2.67
2019-02-27T02:26:10.964Z,2.58
2019-02-27T02:27:10.962Z,2.55
2019-02-27T02:28:12.091Z,2.58
2019-02-27T02:29:10.954Z,2.44
2019-02-27T02:30:10.941Z,2.40
2019-02-27T02:31:10.924Z,2.41
2019-02-27T02:32:16.851Z,2.28
2019-02-27T02:33:11.890Z,2.28
2019-02-27T02:34:10.881Z,2.37
2019-02-27T02:35:14.823Z,2.37
2019-02-27T02:36:10.859Z,2.41
2019-02-27T02:37:10.851Z,2.34
2019-02-27T02:38:12.577Z,2.26
2019-02-27T02:39:10.826Z,2.28
2019-02-27T02:40:10.822Z,2.33
2019-02-27T02:41:10.817Z,2.35
2019-02-27T02:42:10.795Z,2.27
2019-02-27T02:43:10.806Z,2.22
2019-02-27T02:44:10.775Z,2.22
2019-02-27T02:45:10.762Z,2.30
2019-02-27T02:46:10.751Z,2.12
2019-02-27T02:47:10.769Z,2.17
2019-02-27T02:48:10.737Z,2.23
2019-02-27T02:49:10.721Z,2.20
2019-02-27T02:50:10.708Z,2.13
2019-02-27T02:51:10.717Z,2.26
2019-02-27T02:52:10.687Z,2.26
2019-02-27T02:53:10.691Z,2.27
2019-02-27T02:54:10.665Z,2.27
2019-02-27T02:55:12.497Z,2.30
2019-02-27T02:56:10.644Z,2.19
2019-02-27T02:57:10.635Z,2.22
2019-02-27T02:58:11.330Z,2.16
2019-02-27T02:59:10.627Z,2.09
2019-02-27T03:00:10.599Z,2.19
2019-02-27T03:01:14.181Z,2.17
2019-02-27T03:02:10.579Z,2.13
2019-02-27T03:03:10.567Z,2.19
2019-02-27T03:04:12.801Z,2.23
2019-02-27T03:05:10.557Z,2.06
2019-02-27T03:06:10.538Z,2.02
2019-02-27T03:07:11.066Z,2.19
2019-02-27T03:08:10.514Z,2.16
2019-02-27T03:09:10.508Z,2.10
2019-02-27T03:10:10.493Z,2.23
2019-02-27T03:11:10.492Z,2.13
2019-02-27T03:12:10.471Z,2.19
2019-02-27T03:13:10.466Z,2.10
2019-02-27T03:14:17.247Z,2.08
2019-02-27T03:15:11.436Z,2.06
2019-02-27T03:16:10.429Z,2.04
2019-02-27T03:17:10.511Z,2.01
2019-02-27T03:18:10.405Z,2.01
2019-02-27T03:19:10.402Z,1.93
2019-02-27T03:20:10.384Z,1.90
2019-02-27T03:21:10.375Z,1.82
2019-02-27T03:22:10.365Z,1.71
2019-02-27T03:23:15.311Z,1.73
2019-02-27T03:24:11.342Z,1.76
2019-02-27T03:25:10.330Z,1.72
2019-02-27T03:26:16.496Z,1.71
2019-02-27T03:27:11.311Z,1.82
2019-02-27T03:28:10.299Z,1.82
2019-02-27T03:29:15.561Z,1.89
2019-02-27T03:30:11.285Z,1.90
2019-02-27T03:31:16.204Z,1.91
2019-02-27T03:32:11.261Z,2.08
2019-02-27T03:33:10.255Z,2.09
2019-02-27T03:34:10.246Z,2.10
2019-02-27T03:35:10.271Z,2.10
2019-02-27T03:36:10.225Z,2.16
2019-02-27T03:37:13.183Z,2.13
2019-02-27T03:38:10.191Z,2.16
2019-02-27T03:39:10.181Z,2.17
2019-02-27T03:40:11.764Z,2.17
2019-02-27T03:41:10.170Z,2.19
2019-02-27T03:42:10.148Z,2.20
2019-02-27T03:43:11.363Z,2.16
2019-02-27T03:44:10.128Z,2.19
2019-02-27T03:45:10.120Z,2.17
2019-02-27T03:46:10.112Z,2.19
2019-02-27T03:47:15.611Z,2.17
2019-02-27T03:48:11.083Z,2.12
2019-02-27T03:49:10.073Z,2.17
2019-02-27T03:50:14.660Z,2.20
2019-02-27T03:51:11.050Z,2.20
2019-02-27T03:52:10.040Z,2.17
2019-02-27T03:53:11.079Z,2.17
2019-02-27T03:54:10.019Z,2.20
2019-02-27T03:55:10.008Z,2.27
2019-02-27T03:56:10.124Z,2.17
2019-02-27T03:57:09.987Z,2.16
2019-02-27T03:58:09.980Z,2.04
2019-02-27T03:59:09.976Z,2.13
2019-02-27T04:00:09.954Z,2.10
2019-02-27T04:01:09.944Z,2.16
2019-02-27T04:02:09.932Z,2.12
2019-02-27T04:03:09.924Z,2.15
2019-02-27T04:04:09.937Z,2.06
2019-02-27T04:05:09.910Z,2.09
2019-02-27T04:06:09.890Z,2.10
2019-02-27T04:07:09.881Z,2.08
2019-02-27T04:08:09.869Z,2.09
2019-02-27T04:09:09.870Z,2.10
2019-02-27T04:10:09.849Z,2.17
2019-02-27T04:11:09.846Z,2.22
2019-02-27T04:12:09.825Z,2.13
2019-02-27T04:13:09.815Z,2.15
2019-02-27T04:14:09.803Z,2.16
2019-02-27T04:15:09.792Z,2.17
2019-02-27T04:16:09.782Z,2.15
2019-02-27T04:17:09.788Z,2.17
2019-02-27T04:18:09.761Z,2.19
2019-02-27T04:19:09.750Z,2.12
2019-02-27T04:20:14.626Z,2.28
2019-02-27T04:21:10.727Z,2.27
2019-02-27T04:22:09.746Z,2.20
2019-02-27T04:23:12.494Z,2.19
2019-02-27T04:24:09.696Z,2.20
2019-02-27T04:25:09.686Z,2.19
2019-02-27T04:26:09.679Z,2.16
2019-02-27T04:27:09.665Z,2.20
2019-02-27T04:28:09.662Z,2.23
2019-02-27T04:29:09.658Z,2.13
2019-02-27T04:30:14.679Z,2.09
2019-02-27T04:31:10.626Z,2.06
2019-02-27T04:32:12.435Z,2.06
2019-02-27T04:33:09.601Z,2.04
2019-02-27T04:34:09.591Z,2.06
2019-02-27T04:35:09.595Z,2.09
2019-02-27T04:36:12.461Z,2.13
2019-02-27T04:37:09.558Z,2.12
2019-02-27T04:38:09.547Z,2.10
2019-02-27T04:39:09.537Z,2.09
2019-02-27T04:40:11.236Z,2.02
2019-02-27T04:41:09.526Z,2.06
2019-02-27T04:42:09.504Z,2.10
2019-02-27T04:43:09.494Z,1.97
2019-02-27T04:44:09.485Z,1.89
2019-02-27T04:45:09.876Z,1.82
2019-02-27T04:46:09.463Z,1.80
2019-02-27T04:47:09.462Z,1.91
2019-02-27T04:48:09.443Z,1.87
2019-02-27T04:49:09.437Z,1.90
2019-02-27T04:50:11.284Z,1.90
2019-02-27T04:51:09.409Z,1.93
2019-02-27T04:52:09.400Z,1.90
2019-02-27T04:53:09.398Z,1.97
2019-02-27T04:54:09.376Z,1.90
2019-02-27T04:55:09.365Z,2.01
2019-02-27T04:56:09.356Z,2.06
2019-02-27T04:57:09.344Z,1.97
2019-02-27T04:58:09.675Z,1.91
2019-02-27T04:59:09.336Z,1.91
2019-02-27T05:00:09.318Z,1.87
2019-02-27T05:01:09.308Z,1.89
2019-02-27T05:02:09.291Z,1.94
2019-02-27T05:03:09.279Z,1.94
2019-02-27T05:04:09.271Z,2.02
2019-02-27T05:05:09.332Z,2.04
2019-02-27T05:06:09.247Z,2.02
2019-02-27T05:07:09.237Z,2.02
2019-02-27T05:08:09.227Z,2.04
2019-02-27T05:09:09.218Z,2.10
2019-02-27T05:10:09.209Z,2.08
2019-02-27T05:11:09.212Z,2.15
2019-02-27T05:12:09.183Z,2.04
2019-02-27T05:13:09.172Z,2.04
2019-02-27T05:14:09.163Z,2.08
2019-02-27T05:15:09.150Z,2.08
2019-02-27T05:16:09.139Z,2.02
2019-02-27T05:17:09.140Z,2.09
2019-02-27T05:18:09.118Z,2.01
2019-02-27T05:19:09.113Z,2.06
2019-02-27T05:20:11.837Z,2.06
2019-02-27T05:21:09.089Z,2.04
2019-02-27T05:22:09.077Z,2.16
2019-02-27T05:23:09.076Z,2.12
2019-02-27T05:24:09.055Z,2.12
2019-02-27T05:25:09.045Z,2.06
2019-02-27T05:26:09.034Z,2.13
2019-02-27T05:27:09.023Z,2.15
2019-02-27T05:28:09.013Z,2.09
2019-02-27T05:29:09.013Z,2.06
2019-02-27T05:30:12.035Z,2.06
2019-02-27T05:31:08.983Z,2.09
2019-02-27T05:32:08.972Z,2.06
2019-02-27T05:33:08.963Z,2.04
2019-02-27T05:34:12.467Z,2.04
2019-02-27T05:35:08.952Z,1.99
2019-02-27T05:36:08.937Z,2.04
2019-02-27T05:37:08.919Z,2.06
2019-02-27T05:38:08.908Z,2.04
2019-02-27T05:39:08.896Z,1.89
2019-02-27T05:40:08.890Z,1.91
2019-02-27T05:41:08.888Z,1.89
2019-02-27T05:42:08.864Z,1.87
2019-02-27T05:43:13.160Z,1.87
2019-02-27T05:44:08.843Z,1.76
2019-02-27T05:45:08.833Z,1.85
2019-02-27T05:46:08.822Z,1.85
2019-02-27T05:47:11.091Z,1.76
2019-02-27T05:48:08.800Z,1.90
2019-02-27T05:49:08.789Z,1.80
2019-02-27T05:50:08.796Z,1.82
2019-02-27T05:51:10.673Z,1.89
2019-02-27T05:52:08.757Z,1.75
2019-02-27T05:53:10.545Z,1.69
2019-02-27T05:54:08.736Z,1.71
2019-02-27T05:55:08.725Z,1.50
2019-02-27T05:56:08.715Z,1.37
2019-02-27T05:57:08.704Z,1.33
2019-02-27T05:58:08.693Z,1.29
2019-02-27T05:59:08.693Z,1.36
2019-02-27T06:00:08.678Z,1.28
2019-02-27T06:01:08.661Z,1.29
2019-02-27T06:02:10.783Z,1.28
2019-02-27T06:03:08.641Z,1.29
2019-02-27T06:04:08.632Z,1.25
2019-02-27T06:05:08.630Z,1.24
2019-02-27T06:06:11.501Z,1.26
2019-02-27T06:07:08.599Z,1.28
2019-02-27T06:08:08.590Z,1.26
2019-02-27T06:09:10.368Z,1.36
2019-02-27T06:10:08.651Z,1.40
2019-02-27T06:11:08.568Z,1.42
2019-02-27T06:12:09.847Z,1.52
2019-02-27T06:13:08.538Z,1.44
2019-02-27T06:14:08.527Z,1.54
2019-02-27T06:15:08.516Z,1.55
2019-02-27T06:16:09.272Z,1.58
2019-02-27T06:17:10.092Z,1.57
2019-02-27T06:18:08.483Z,1.60
2019-02-27T06:19:08.504Z,1.61
2019-02-27T06:20:08.582Z,1.58
2019-02-27T06:21:08.453Z,1.57
2019-02-27T06:22:08.440Z,1.57
2019-02-27T06:23:08.443Z,1.55
2019-02-27T06:24:11.666Z,1.64
2019-02-27T06:25:08.417Z,1.73
2019-02-27T06:26:08.403Z,1.69
2019-02-27T06:27:08.388Z,1.71
2019-02-27T06:28:08.378Z,1.69
2019-02-27T06:29:08.385Z,1.64
2019-02-27T06:30:08.363Z,1.72
2019-02-27T06:31:08.347Z,1.60
2019-02-27T06:32:11.872Z,1.51
2019-02-27T06:33:11.650Z,1.55
2019-02-27T06:34:08.317Z,1.58
2019-02-27T06:35:08.315Z,1.54
2019-02-27T06:36:08.599Z,1.57
2019-02-27T06:37:08.284Z,1.54
2019-02-27T06:38:08.272Z,1.46
2019-02-27T06:39:08.811Z,1.47
2019-02-27T06:40:08.251Z,1.39
2019-02-27T06:41:08.251Z,1.40
2019-02-27T06:42:08.294Z,1.34
2019-02-27T06:43:08.219Z,1.40
2019-02-27T06:44:08.208Z,1.40
2019-02-27T06:45:10.258Z,1.36
2019-02-27T06:46:08.187Z,1.50
2019-02-27T06:47:08.187Z,1.43
2019-02-27T06:48:10.244Z,1.50
2019-02-27T06:49:08.157Z,1.55
2019-02-27T06:50:08.144Z,1.61
2019-02-27T06:51:08.135Z,1.60
2019-02-27T06:52:09.282Z,1.69
2019-02-27T06:53:08.125Z,1.75
2019-02-27T06:54:08.102Z,1.69
2019-02-27T06:55:08.091Z,1.68
2019-02-27T06:56:08.090Z,1.85
2019-02-27T06:57:08.421Z,1.85
2019-02-27T06:58:08.058Z,2.01
2019-02-27T06:59:08.057Z,1.98
2019-02-27T07:00:08.038Z,2.08
2019-02-27T07:01:09.710Z,2.15
2019-02-27T07:02:08.016Z,2.20
2019-02-27T07:03:08.006Z,2.12
2019-02-27T07:04:08.279Z,2.27
2019-02-27T07:05:07.998Z,2.30
2019-02-27T07:06:07.972Z,2.33
2019-02-27T07:07:07.961Z,2.38
2019-02-27T07:08:07.951Z,2.46
2019-02-27T07:09:11.341Z,2.51
2019-02-27T07:10:07.930Z,2.59
2019-02-27T07:11:10.950Z,2.69
2019-02-27T07:12:07.909Z,2.81
2019-02-27T07:13:07.900Z,2.74
2019-02-27T07:14:07.887Z,2.91
2019-02-27T07:15:10.314Z,3.00
2019-02-27T07:16:07.866Z,2.95
2019-02-27T07:17:07.866Z,3.09
2019-02-27T07:18:07.846Z,3.23
2019-02-27T07:19:07.834Z,3.34
2019-02-27T07:20:08.847Z,3.44
2019-02-27T07:21:07.814Z,3.57
2019-02-27T07:22:09.310Z,3.78
2019-02-27T07:23:07.806Z,3.72
2019-02-27T07:24:07.783Z,3.92
2019-02-27T07:25:07.771Z,4.08
2019-02-27T07:26:07.760Z,4.16
2019-02-27T07:27:07.748Z,4.29
2019-02-27T07:28:09.165Z,4.39
2019-02-27T07:29:07.739Z,4.54
2019-02-27T07:30:08.117Z,4.59
2019-02-27T07:31:07.706Z,4.83
2019-02-27T07:32:07.695Z,4.86
2019-02-27T07:33:07.683Z,4.91
2019-02-27T07:34:07.673Z,4.92
2019-02-27T07:35:07.675Z,4.98
2019-02-27T07:36:07.653Z,5.04
2019-02-27T07:37:07.641Z,4.99
2019-02-27T07:38:07.630Z,5.13
2019-02-27T07:39:07.636Z,5.09
2019-02-27T07:40:08.625Z,5.23
2019-02-27T07:41:07.633Z,5.23
2019-02-27T07:42:07.588Z,5.30
2019-02-27T07:43:07.576Z,5.38
2019-02-27T07:44:07.565Z,5.45
2019-02-27T07:45:08.126Z,5.53
2019-02-27T07:46:07.544Z,5.55
2019-02-27T07:47:07.547Z,5.57
2019-02-27T07:48:07.522Z,5.73
2019-02-27T07:49:07.511Z,5.85
2019-02-27T07:50:08.838Z,5.88
2019-02-27T07:51:07.490Z,6.00
2019-02-27T07:52:07.479Z,5.91
2019-02-27T07:53:07.482Z,6.03
2019-02-27T07:54:07.457Z,6.10
2019-02-27T07:55:18.511Z,6.16
2019-02-27T07:56:08.440Z,6.28
2019-02-27T07:57:07.425Z,6.36
2019-02-27T07:58:07.415Z,6.36
2019-02-27T07:59:07.414Z,6.48
2019-02-27T08:00:07.392Z,6.61
2019-02-27T08:01:07.382Z,6.72
2019-02-27T08:02:07.370Z,6.77
2019-02-27T08:03:09.843Z,6.80
2019-02-27T08:04:07.372Z,6.91
2019-02-27T08:05:07.360Z,7.02
2019-02-27T08:06:07.326Z,7.09
2019-02-27T08:07:09.974Z,7.23
2019-02-27T08:08:08.306Z,7.37
2019-02-27T08:09:07.295Z,7.41
2019-02-27T08:10:07.283Z,7.38
2019-02-27T08:11:07.289Z,7.53
2019-02-27T08:12:07.261Z,7.55
2019-02-27T08:13:07.251Z,7.53
2019-02-27T08:14:07.240Z,7.59
2019-02-27T08:15:07.229Z,7.52
2019-02-27T08:16:07.219Z,7.40
2019-02-27T08:17:17.199Z,7.41
2019-02-27T08:18:08.313Z,7.47
2019-02-27T08:19:08.921Z,7.56
2019-02-27T08:20:07.178Z,7.53
2019-02-27T08:21:07.167Z,7.52
2019-02-27T08:22:07.153Z,7.59
2019-02-27T08:23:07.152Z,7.55
2019-02-27T08:24:07.660Z,7.67
2019-02-27T08:25:07.120Z,7.63
2019-02-27T08:26:07.108Z,7.62
2019-02-27T08:27:09.582Z,7.75
2019-02-27T08:28:07.089Z,7.89
2019-02-27T08:29:07.124Z,7.92
2019-02-27T08:30:07.066Z,8.00
2019-02-27T08:31:07.053Z,8.00
2019-02-27T08:32:07.044Z,8.10
2019-02-27T08:33:08.440Z,8.15
2019-02-27T08:34:07.021Z,8.11
2019-02-27T08:35:07.029Z,8.28
2019-02-27T08:36:07.008Z,8.44
2019-02-27T08:37:06.989Z,8.57
2019-02-27T08:38:06.979Z,8.51
2019-02-27T08:39:06.968Z,8.54
2019-02-27T08:40:06.957Z,8.73
2019-02-27T08:41:06.958Z,8.72
2019-02-27T08:42:06.936Z,8.93
2019-02-27T08:43:06.925Z,9.04
2019-02-27T08:44:06.915Z,9.04
2019-02-27T08:45:06.907Z,9.10
2019-02-27T08:46:06.892Z,9.13
2019-02-27T08:47:07.797Z,9.16
2019-02-27T08:48:06.871Z,9.28
2019-02-27T08:49:06.860Z,9.30
2019-02-27T08:50:06.854Z,9.40
2019-02-27T08:51:08.754Z,9.60
2019-02-27T08:52:08.421Z,9.46
2019-02-27T08:53:06.827Z,9.49
2019-02-27T08:54:06.805Z,9.50
2019-02-27T08:55:06.794Z,9.56
2019-02-27T08:56:06.783Z,9.53
2019-02-27T08:57:06.772Z,9.58
2019-02-27T08:58:07.285Z,9.61
2019-02-27T08:59:06.761Z,9.75
2019-02-27T09:00:06.740Z,9.70
2019-02-27T09:01:06.730Z,9.70
2019-02-27T09:02:06.717Z,9.76
2019-02-27T09:03:06.708Z,9.81
2019-02-27T09:04:11.465Z,9.88
2019-02-27T09:05:07.702Z,10.01
2019-02-27T09:06:06.676Z,10.00
2019-02-27T09:07:06.662Z,10.03
2019-02-27T09:08:07.361Z,9.97
2019-02-27T09:09:07.968Z,10.07
2019-02-27T09:10:06.629Z,10.25
2019-02-27T09:11:06.914Z,10.30
2019-02-27T09:12:06.607Z,10.32
2019-02-27T09:13:06.604Z,10.40
2019-02-27T09:14:06.586Z,10.52
2019-02-27T09:15:06.574Z,10.47
2019-02-27T09:16:06.563Z,10.46
2019-02-27T09:17:06.561Z,10.44
2019-02-27T09:18:06.541Z,10.40
2019-02-27T09:19:09.251Z,10.44
2019-02-27T09:20:06.518Z,10.58
2019-02-27T09:21:06.514Z,10.68
2019-02-27T09:22:06.496Z,10.71
2019-02-27T09:23:06.496Z,10.81
2019-02-27T09:24:06.475Z,10.89
2019-02-27T09:25:06.465Z,11.02
2019-02-27T09:26:06.455Z,10.95
2019-02-27T09:27:06.443Z,11.01
2019-02-27T09:28:09.205Z,11.06
2019-02-27T09:29:06.433Z,11.10
2019-02-27T09:30:06.412Z,11.16
2019-02-27T09:31:06.401Z,10.98
2019-02-27T09:32:06.390Z,11.06
2019-02-27T09:33:06.381Z,11.21
2019-02-27T09:34:06.494Z,11.27
2019-02-27T09:35:06.370Z,11.25
2019-02-27T09:36:08.014Z,11.29
2019-02-27T09:37:06.336Z,11.24
2019-02-27T09:38:06.326Z,11.09
2019-02-27T09:39:06.315Z,10.96
2019-02-27T09:40:06.311Z,10.91
2019-02-27T09:41:06.305Z,10.96
2019-02-27T09:42:06.284Z,10.99
2019-02-27T09:43:06.381Z,11.03
2019-02-27T09:44:06.265Z,11.14
2019-02-27T09:45:08.227Z,11.19
2019-02-27T09:46:06.319Z,11.17
2019-02-27T09:47:06.240Z,11.24
2019-02-27T09:48:06.220Z,11.27
2019-02-27T09:49:07.085Z,11.39
2019-02-27T09:50:06.198Z,11.39
2019-02-27T09:51:06.188Z,11.49
2019-02-27T09:52:06.176Z,11.49
2019-02-27T09:53:06.179Z,11.52
2019-02-27T09:54:08.069Z,11.56
2019-02-27T09:55:06.144Z,11.54
2019-02-27T09:56:06.133Z,11.59
2019-02-27T09:57:06.122Z,11.65
2019-02-27T09:58:10.073Z,11.62
2019-02-27T09:59:06.111Z,11.68
2019-02-27T10:00:06.090Z,11.74
2019-02-27T10:01:06.079Z,11.72
2019-02-27T10:02:08.758Z,11.65
2019-02-27T10:03:06.058Z,11.75
2019-02-27T10:04:06.052Z,11.82
2019-02-27T10:05:06.046Z,11.93
2019-02-27T10:06:08.746Z,11.75
2019-02-27T10:07:06.018Z,11.75
2019-02-27T10:08:07.485Z,11.82
2019-02-27T10:09:05.994Z,11.86
2019-02-27T10:10:10.200Z,11.96
2019-02-27T10:11:05.992Z,11.85
2019-02-27T10:12:05.961Z,12.04
2019-02-27T10:13:05.950Z,12.01
2019-02-27T10:14:05.940Z,12.19
2019-02-27T10:15:05.930Z,12.19
2019-02-27T10:16:05.920Z,12.15
2019-02-27T10:17:06.732Z,12.15
2019-02-27T10:18:05.897Z,12.12
2019-02-27T10:19:05.886Z,12.24
2019-02-27T10:20:05.876Z,12.23
2019-02-27T10:21:05.870Z,12.21
2019-02-27T10:22:05.854Z,12.29
2019-02-27T10:23:05.855Z,12.26
2019-02-27T10:24:05.836Z,12.24
2019-02-27T10:25:08.593Z,12.30
2019-02-27T10:26:05.813Z,12.37
2019-02-27T10:27:05.800Z,12.52
2019-02-27T10:28:05.790Z,12.54
2019-02-27T10:29:05.796Z,12.51
2019-02-27T10:30:11.450Z,12.66
2019-02-27T10:31:06.757Z,12.70
2019-02-27T10:32:05.749Z,12.74
2019-02-27T10:33:05.736Z,12.79
2019-02-27T10:34:05.725Z,12.82
2019-02-27T10:35:05.726Z,12.82
2019-02-27T10:36:05.704Z,12.84
2019-02-27T10:37:05.723Z,12.92
2019-02-27T10:38:05.683Z,12.82
2019-02-27T10:39:05.670Z,12.77
2019-02-27T10:40:05.659Z,12.82
2019-02-27T10:41:05.659Z,12.77
2019-02-27T10:42:05.638Z,12.88
2019-02-27T10:43:05.629Z,12.95
2019-02-27T10:44:05.617Z,12.93
2019-02-27T10:45:09.815Z,12.92
2019-02-27T10:46:05.593Z,13.02
2019-02-27T10:47:05.600Z,13.03
2019-02-27T10:48:05.572Z,12.97
2019-02-27T10:49:05.561Z,13.06
2019-02-27T10:50:05.549Z,13.03
2019-02-27T10:51:05.538Z,13.06
2019-02-27T10:52:05.539Z,13.04
2019-02-27T10:53:05.528Z,13.04
2019-02-27T10:54:05.605Z,13.20
2019-02-27T10:55:05.493Z,13.15
2019-02-27T10:56:05.487Z,13.21
2019-02-27T10:57:06.024Z,13.25
2019-02-27T10:58:07.561Z,13.27
2019-02-27T10:59:05.460Z,13.21
2019-02-27T11:00:05.439Z,13.25
2019-02-27T11:01:05.426Z,13.24
2019-02-27T11:02:05.418Z,13.29
2019-02-27T11:03:05.407Z,13.27
2019-02-27T11:04:05.395Z,13.41
2019-02-27T11:05:05.404Z,13.43
2019-02-27T11:06:05.379Z,13.40
2019-02-27T11:07:05.362Z,13.29
2019-02-27T11:08:05.353Z,13.29
2019-02-27T11:09:05.367Z,13.29
2019-02-27T11:10:05.331Z,13.30
2019-02-27T11:11:05.336Z,13.46
2019-02-27T11:12:05.313Z,13.49
2019-02-27T11:13:06.715Z,13.47
2019-02-27T11:14:05.289Z,13.52
2019-02-27T11:15:05.277Z,13.56
2019-02-27T11:16:05.266Z,13.62
2019-02-27T11:17:05.265Z,13.63
2019-02-27T11:18:05.928Z,13.55
2019-02-27T11:19:05.235Z,13.62
2019-02-27T11:20:05.229Z,13.67
2019-02-27T11:21:05.212Z,13.71
2019-02-27T11:22:05.206Z,13.76
2019-02-27T11:23:07.083Z,13.80
2019-02-27T11:24:05.180Z,13.87
2019-02-27T11:25:05.170Z,13.88
2019-02-27T11:26:05.158Z,13.92
2019-02-27T11:27:06.190Z,13.92
2019-02-27T11:28:05.141Z,13.92
2019-02-27T11:29:05.138Z,13.91
2019-02-27T11:30:05.116Z,13.94
2019-02-27T11:31:05.105Z,13.96
2019-02-27T11:32:05.096Z,14.02
2019-02-27T11:33:05.084Z,14.16
2019-02-27T11:34:07.838Z,14.06
2019-02-27T11:35:05.075Z,14.16
2019-02-27T11:36:05.667Z,14.14
2019-02-27T11:37:05.052Z,14.24
2019-02-27T11:38:05.033Z,14.21
2019-02-27T11:39:05.027Z,14.27
2019-02-27T11:40:05.416Z,14.31
2019-02-27T11:41:05.009Z,14.39
2019-02-27T11:42:04.989Z,14.37
2019-02-27T11:43:07.007Z,14.42
2019-02-27T11:44:04.968Z,14.49
2019-02-27T11:45:04.957Z,14.50
2019-02-27T11:46:04.948Z,14.50
2019-02-27T11:47:04.946Z,14.53
2019-02-27T11:48:04.925Z,14.62
2019-02-27T11:49:04.914Z,14.61
2019-02-27T11:50:04.903Z,14.57
2019-02-27T11:51:04.893Z,14.67
2019-02-27T11:52:04.882Z,14.67
2019-02-27T11:53:04.885Z,14.62
2019-02-27T11:54:04.861Z,14.72
2019-02-27T11:55:04.850Z,14.65
2019-02-27T11:56:04.843Z,14.68
2019-02-27T11:57:04.828Z,14.72
2019-02-27T11:58:05.593Z,14.72
2019-02-27T11:59:04.819Z,14.68
2019-02-27T12:00:04.799Z,14.69
2019-02-27T12:01:04.786Z,14.72
2019-02-27T12:02:04.776Z,14.81
2019-02-27T12:03:04.770Z,14.72
2019-02-27T12:04:04.754Z,14.91
2019-02-27T12:05:04.753Z,14.83
2019-02-27T12:06:05.358Z,14.88
2019-02-27T12:07:04.723Z,15.01
2019-02-27T12:08:04.711Z,15.03
2019-02-27T12:09:04.707Z,14.98
2019-02-27T12:10:06.604Z,15.03
2019-02-27T12:11:04.690Z,15.06
2019-02-27T12:12:04.670Z,15.12
2019-02-27T12:13:04.658Z,15.08
2019-02-27T12:14:06.533Z,15.08
2019-02-27T12:15:06.772Z,15.09
2019-02-27T12:16:04.626Z,15.19
2019-02-27T12:17:04.626Z,15.21
2019-02-27T12:18:04.605Z,15.28
2019-02-27T12:19:06.420Z,15.30
2019-02-27T12:20:04.586Z,15.28
2019-02-27T12:21:04.572Z,15.41
2019-02-27T12:22:04.561Z,15.36
2019-02-27T12:23:04.569Z,15.36
2019-02-27T12:24:05.451Z,15.36
2019-02-27T12:25:04.528Z,15.41
2019-02-27T12:26:04.517Z,15.48
2019-02-27T12:27:04.508Z,15.39
2019-02-27T12:28:04.506Z,15.49
2019-02-27T12:29:04.494Z,15.45
2019-02-27T12:30:04.473Z,15.59
2019-02-27T12:31:04.461Z,15.54
2019-02-27T12:32:06.117Z,15.61
2019-02-27T12:33:04.439Z,15.54
2019-02-27T12:34:04.428Z,15.63
2019-02-27T12:35:04.428Z,15.59
2019-02-27T12:36:04.407Z,15.74
2019-02-27T12:37:04.395Z,15.72
2019-02-27T12:38:07.318Z,15.72
2019-02-27T12:39:04.372Z,15.78
2019-02-27T12:40:04.361Z,15.76
2019-02-27T12:41:04.363Z,15.89
2019-02-27T12:42:06.966Z,15.85
2019-02-27T12:43:04.330Z,15.89
2019-02-27T12:44:04.317Z,16.03
2019-02-27T12:45:04.309Z,16.07
2019-02-27T12:46:04.297Z,16.12
2019-02-27T12:47:05.581Z,16.16
2019-02-27T12:48:04.278Z,16.22
2019-02-27T12:49:04.265Z,16.30
2019-02-27T12:50:04.254Z,16.31
2019-02-27T12:51:04.428Z,16.34
2019-02-27T12:52:04.232Z,16.26
2019-02-27T12:53:04.232Z,16.31
2019-02-27T12:54:04.210Z,16.41
2019-02-27T12:55:04.199Z,16.38
2019-02-27T12:56:04.191Z,16.41
2019-02-27T12:57:04.181Z,16.33
2019-02-27T12:58:04.174Z,16.42
2019-02-27T12:59:04.172Z,16.44
2019-02-27T13:00:05.771Z,16.42
2019-02-27T13:01:04.135Z,16.53
2019-02-27T13:02:08.247Z,16.62
2019-02-27T13:03:08.399Z,16.70
2019-02-27T13:04:05.116Z,16.65
2019-02-27T13:05:04.094Z,16.71
2019-02-27T13:06:04.085Z,16.74
2019-02-27T13:07:04.071Z,16.75
2019-02-27T13:08:04.060Z,16.83
2019-02-27T13:09:04.051Z,16.81
2019-02-27T13:10:04.048Z,16.86
2019-02-27T13:11:05.247Z,16.83
2019-02-27T13:12:04.016Z,16.80
2019-02-27T13:13:04.007Z,16.83
2019-02-27T13:14:03.995Z,16.88
2019-02-27T13:15:06.621Z,16.81
2019-02-27T13:16:03.984Z,16.99
2019-02-27T13:17:03.966Z,16.86
2019-02-27T13:18:03.952Z,17.03
2019-02-27T13:19:06.407Z,17.03
2019-02-27T13:20:03.932Z,17.03
2019-02-27T13:21:03.923Z,16.90
2019-02-27T13:22:03.921Z,16.95
2019-02-27T13:23:05.267Z,16.96
2019-02-27T13:24:03.888Z,16.85
2019-02-27T13:25:03.874Z,16.96
2019-02-27T13:26:03.865Z,16.89
2019-02-27T13:27:06.637Z,16.86
2019-02-27T13:28:04.854Z,16.88
2019-02-27T13:29:03.831Z,16.81
2019-02-27T13:30:08.778Z,16.90
2019-02-27T13:31:04.810Z,16.99
2019-02-27T13:32:03.799Z,16.95
2019-02-27T13:33:03.790Z,17.00
2019-02-27T13:34:03.786Z,16.99
2019-02-27T13:35:03.765Z,17.04
2019-02-27T13:36:03.756Z,17.10
2019-02-27T13:37:03.743Z,17.14
2019-02-27T13:38:03.731Z,17.15